Time;durP1;ratioP1;P1;durP2;ratioP2;P2;SDS_P1;SDS_P2;PMS_P1;PMS_P2;Temp;Humidity;BMP_temperature;BMP_pressure;BME280_temperature;BME280_humidity;BME280_pressure;Samples;Min_cycle;Max_cycle;Signal;HPM_P1;HPM_P2
2022/09/18 00:01:39;;;;;;;0.30;0.13;;;;;;;7.71;100.00;96439.16;5056832;28;20048;-75
2022/09/18 00:04:06;;;;;;;0.10;0.10;;;;;;;7.70;100.00;96440.16;5060875;28;20024;-75
2022/09/18 00:06:37;;;;;;;0.10;0.10;;;;;;;7.74;100.00;96430.69;5059750;28;20161;-75
2022/09/18 00:09:04;;;;;;;0.10;0.10;;;;;;;7.78;100.00;96429.19;5054716;28;20039;-75
2022/09/18 00:11:34;;;;;;;0.10;0.10;;;;;;;7.84;100.00;96427.44;5056922;28;20094;-75
2022/09/18 00:14:00;;;;;;;0.10;0.10;;;;;;;7.91;100.00;96435.31;5029501;28;20058;-75
2022/09/18 00:16:25;;;;;;;0.10;0.10;;;;;;;7.96;100.00;96430.94;5059160;28;20429;-75
2022/09/18 00:18:52;;;;;;;0.10;0.10;;;;;;;8.00;100.00;96428.59;5055202;28;20109;-75
2022/09/18 00:21:21;;;;;;;0.10;0.10;;;;;;;7.99;100.00;96425.13;5041639;28;20474;-75
2022/09/18 00:23:47;;;;;;;0.13;0.13;;;;;;;7.99;100.00;96429.63;5057790;28;20407;-75
2022/09/18 00:26:14;;;;;;;0.10;0.10;;;;;;;8.00;100.00;96426.75;5058880;28;20040;-75
2022/09/18 00:28:39;;;;;;;0.10;0.10;;;;;;;8.01;100.00;96428.34;5054875;28;20269;-75
2022/09/18 00:31:07;;;;;;;0.10;0.10;;;;;;;8.04;100.00;96422.56;5055309;28;20036;-76
2022/09/18 00:33:34;;;;;;;0.10;0.10;;;;;;;8.06;100.00;96420.47;5055909;28;20430;-76
2022/09/18 00:36:02;;;;;;;0.10;0.10;;;;;;;8.08;100.00;96422.91;5041594;28;20766;-75
2022/09/18 00:38:30;;;;;;;0.10;0.10;;;;;;;8.05;100.00;96408.22;5058238;28;20114;-75
2022/09/18 00:40:57;;;;;;;0.10;0.10;;;;;;;8.08;100.00;96425.56;5055368;28;20055;-75
2022/09/18 00:43:25;;;;;;;0.10;0.10;;;;;;;8.09;100.00;96422.69;5040366;28;20539;-75
2022/09/18 00:45:59;;;;;;;0.10;0.10;;;;;;;8.09;100.00;96429.84;5031788;28;20040;-75
2022/09/18 00:48:34;;;;;;;0.10;0.10;;;;;;;8.08;100.00;96437.03;5039358;28;20532;-76
2022/09/18 00:51:00;;;;;;;0.10;0.10;;;;;;;8.08;100.00;96431.72;5054540;28;20028;-75
2022/09/18 00:53:27;;;;;;;0.10;0.10;;;;;;;8.03;100.00;96439.63;5055455;28;21308;-75
2022/09/18 00:55:53;;;;;;;0.00;0.00;;;;;;;8.05;100.00;96426.84;5054932;28;20071;-75
2022/09/18 00:58:19;;;;;;;0.10;0.10;;;;;;;8.09;100.00;96430.69;5057173;28;20032;-75
2022/09/18 01:00:44;;;;;;;0.10;0.10;;;;;;;8.08;100.00;96434.38;5037984;28;20028;-75
2022/09/18 01:03:10;;;;;;;0.10;0.10;;;;;;;8.06;100.00;96427.66;5056641;28;20379;-75
2022/09/18 01:06:28;;;;;;;0.00;0.00;;;;;;;8.07;100.00;96427.44;5055383;28;20723;-76
2022/09/18 01:09:14;;;;;;;0.10;0.10;;;;;;;8.14;100.00;96421.97;4984356;28;20350;-75
2022/09/18 01:11:43;;;;;;;0.10;0.10;;;;;;;8.18;100.00;96431.16;5040714;28;20284;-75
2022/09/18 01:14:33;;;;;;;0.10;0.10;;;;;;;8.15;100.00;96428.13;5037958;28;20082;-75
2022/09/18 01:17:10;;;;;;;0.10;0.10;;;;;;;8.03;100.00;96442.28;5057191;28;20028;-75
2022/09/18 01:19:51;;;;;;;0.10;0.10;;;;;;;8.08;100.00;96429.06;5058520;28;20322;-75
2022/09/18 01:22:54;;;;;;;0.10;0.10;;;;;;;8.08;100.00;96414.91;5056422;28;20024;-75
2022/09/18 01:25:32;;;;;;;0.20;0.17;;;;;;;8.04;100.00;96417.25;5056623;28;20535;-75
2022/09/18 01:27:57;;;;;;;0.10;0.10;;;;;;;8.07;100.00;96416.78;5023451;28;20029;-75
2022/09/18 01:30:23;;;;;;;0.13;0.10;;;;;;;8.07;100.00;96415.97;5040025;28;20021;-75
2022/09/18 01:33:06;;;;;;;0.10;0.10;;;;;;;8.07;100.00;96415.97;5028612;28;20036;-75
2022/09/18 01:35:42;;;;;;;0.10;0.10;;;;;;;8.06;100.00;96420.47;5026530;28;20040;-75
2022/09/18 01:38:10;;;;;;;0.10;0.10;;;;;;;8.04;100.00;96413.78;5040008;28;20116;-76
2022/09/18 01:41:05;;;;;;;0.10;0.10;;;;;;;8.05;100.00;96412.72;5038096;28;20090;-75
2022/09/18 01:43:34;;;;;;;0.10;0.10;;;;;;;8.04;100.00;96419.09;5035900;28;20048;-75
2022/09/18 01:46:05;;;;;;;0.10;0.10;;;;;;;8.03;100.00;96428.16;5041553;28;20034;-75
2022/09/18 01:48:43;;;;;;;0.10;0.10;;;;;;;7.93;100.00;96425.22;5026149;28;20375;-75
2022/09/18 01:51:19;;;;;;;0.00;0.00;;;;;;;7.96;100.00;96422.13;5031878;28;20083;-75
2022/09/18 01:53:51;;;;;;;0.10;0.10;;;;;;;7.98;100.00;96428.84;5042508;28;20025;-75
2022/09/18 01:56:32;;;;;;;0.10;0.10;;;;;;;7.98;100.00;96423.50;5041307;28;20133;-75
2022/09/18 01:59:02;;;;;;;0.10;0.10;;;;;;;7.97;100.00;96429.88;5029570;28;20513;-75
2022/09/18 02:01:41;;;;;;;0.10;0.10;;;;;;;7.99;100.00;96424.31;5057765;28;20045;-75
2022/09/18 02:04:11;;;;;;;0.10;0.10;;;;;;;7.97;100.00;96427.22;5040568;28;20028;-75
2022/09/18 02:06:40;;;;;;;0.10;0.10;;;;;;;8.03;100.00;96428.16;5041337;28;20029;-75
2022/09/18 02:09:08;;;;;;;0.15;0.10;;;;;;;8.02;100.00;96427.34;5043622;28;20041;-75
2022/09/18 02:11:36;;;;;;;0.10;0.10;;;;;;;7.98;100.00;96422.69;5040063;28;20060;-76
2022/09/18 02:14:06;;;;;;;0.20;0.10;;;;;;;7.96;100.00;96414.13;5039636;28;20037;-76
2022/09/18 02:16:59;;;;;;;0.10;0.10;;;;;;;7.94;100.00;96416.22;5056912;28;20096;-76
2022/09/18 02:19:29;;;;;;;0.10;0.10;;;;;;;7.95;100.00;96423.16;5031403;28;20021;-76
2022/09/18 02:21:58;;;;;;;0.10;0.10;;;;;;;7.93;100.00;96417.25;5044056;28;20044;-76
2022/09/18 02:24:31;;;;;;;0.10;0.10;;;;;;;7.91;100.00;96422.00;5056435;28;20370;-76
2022/09/18 02:27:00;;;;;;;0.10;0.10;;;;;;;7.94;100.00;96424.22;5045166;28;20040;-76
2022/09/18 02:29:29;;;;;;;0.10;0.10;;;;;;;7.93;100.00;96414.56;5056626;28;20376;-76
2022/09/18 02:31:55;;;;;;;0.10;0.10;;;;;;;7.89;100.00;96418.75;5047450;28;20426;-75
2022/09/18 02:34:22;;;;;;;0.10;0.10;;;;;;;7.87;100.00;96418.19;5039974;28;20024;-76
2022/09/18 02:36:55;;;;;;;0.10;0.10;;;;;;;7.87;100.00;96411.00;5042917;28;20029;-75
2022/09/18 02:39:41;;;;;;;0.10;0.10;;;;;;;7.89;100.00;96414.25;5041860;28;20075;-76
2022/09/18 02:42:23;;;;;;;0.10;0.10;;;;;;;7.88;100.00;96411.81;5021592;28;20058;-76
2022/09/18 02:45:08;;;;;;;0.20;0.10;;;;;;;7.86;100.00;96412.06;5041907;28;20032;-76
2022/09/18 02:48:01;;;;;;;0.10;0.10;;;;;;;7.87;100.00;96416.34;5011402;28;20036;-76
2022/09/18 02:50:54;;;;;;;0.10;0.10;;;;;;;7.90;100.00;96418.53;5035215;28;20498;-76
2022/09/18 02:53:40;;;;;;;0.10;0.10;;;;;;;7.89;100.00;96416.91;5040864;28;20121;-76
2022/09/18 02:56:20;;;;;;;0.10;0.10;;;;;;;7.94;100.00;96414.38;5040118;28;20028;-76
2022/09/18 02:58:53;;;;;;;0.10;0.10;;;;;;;7.92;100.00;96410.28;5059620;28;20089;-76
2022/09/18 03:01:22;;;;;;;0.10;0.10;;;;;;;7.92;100.00;96412.97;5040721;28;20041;-76
2022/09/18 03:03:47;;;;;;;0.10;0.10;;;;;;;7.96;100.00;96404.28;5040178;28;20020;-76
2022/09/18 03:06:16;;;;;;;0.10;0.10;;;;;;;7.97;100.00;96411.22;5040629;28;20139;-76
2022/09/18 03:08:42;;;;;;;0.20;0.10;;;;;;;7.91;100.00;96403.34;5057023;28;20040;-76
2022/09/18 03:11:08;;;;;;;0.00;0.00;;;;;;;7.89;100.00;96402.78;5005483;28;20584;-76
2022/09/18 03:13:34;;;;;;;0.10;0.10;;;;;;;7.89;100.00;96403.59;5029973;28;20040;-76
2022/09/18 03:16:01;;;;;;;0.10;0.10;;;;;;;7.90;100.00;96399.88;5029820;28;20048;-76
2022/09/18 03:18:27;;;;;;;0.10;0.10;;;;;;;7.90;100.00;96405.22;5018490;28;20061;-75
2022/09/18 03:20:54;;;;;;;0.10;0.10;;;;;;;7.94;100.00;96400.25;5011404;28;20084;-76
2022/09/18 03:23:22;;;;;;;0.10;0.10;;;;;;;7.93;100.00;96386.06;5003422;28;20029;-76
2022/09/18 03:25:49;;;;;;;0.10;0.10;;;;;;;7.92;100.00;96403.09;5019055;28;20047;-76
2022/09/18 03:28:16;;;;;;;0.10;0.10;;;;;;;7.93;100.00;96403.91;5016612;28;20040;-76
2022/09/18 03:30:43;;;;;;;0.10;0.10;;;;;;;7.89;100.00;96402.78;5030164;28;20317;-76
2022/09/18 03:33:10;;;;;;;0.10;0.10;;;;;;;7.91;100.00;96404.16;5019117;28;20764;-76
2022/09/18 03:35:36;;;;;;;0.10;0.10;;;;;;;7.92;100.00;96403.09;5013687;28;20067;-76
2022/09/18 03:38:01;;;;;;;0.10;0.10;;;;;;;7.90;100.00;96405.22;5017873;28;20029;-76
2022/09/18 03:40:29;;;;;;;0.10;0.10;;;;;;;7.86;100.00;96396.06;5026228;28;20372;-76
2022/09/18 03:42:55;;;;;;;0.10;0.10;;;;;;;7.87;100.00;96400.34;5029938;28;20462;-76
2022/09/18 03:45:23;;;;;;;0.10;0.10;;;;;;;7.91;100.00;96395.34;5029110;28;20033;-76
2022/09/18 03:47:50;;;;;;;0.13;0.13;;;;;;;7.92;100.00;96404.97;5028375;28;20090;-76
2022/09/18 03:50:15;;;;;;;0.10;0.10;;;;;;;7.89;100.00;96397.44;5011072;28;20044;-75
2022/09/18 03:52:42;;;;;;;0.10;0.10;;;;;;;7.91;100.00;96401.50;5019804;28;20380;-76
2022/09/18 03:55:28;;;;;;;0.10;0.10;;;;;;;7.89;100.00;96405.44;5005318;28;20240;-75
2022/09/18 03:58:06;;;;;;;0.08;0.08;;;;;;;7.93;100.00;96401.25;5012693;28;20067;-75
2022/09/18 04:00:42;;;;;;;0.10;0.10;;;;;;;7.90;100.00;96397.22;4994987;28;20272;-75
2022/09/18 04:03:16;;;;;;;0.10;0.10;;;;;;;7.88;100.00;96396.66;5018183;28;20603;-75
2022/09/18 04:06:01;;;;;;;0.10;0.10;;;;;;;7.87;100.00;96395.03;5017868;28;20055;-75
2022/09/18 04:08:29;;;;;;;0.10;0.10;;;;;;;7.92;100.00;96407.63;5029027;28;20037;-75
2022/09/18 04:11:24;;;;;;;0.10;0.10;;;;;;;7.92;100.00;96413.78;5025652;28;20049;-75
2022/09/18 04:13:51;;;;;;;0.10;0.10;;;;;;;7.95;100.00;96410.66;5001316;28;20095;-75
2022/09/18 04:16:17;;;;;;;0.13;0.10;;;;;;;7.93;100.00;96403.91;5011205;28;20618;-75
2022/09/18 04:18:43;;;;;;;0.10;0.10;;;;;;;7.91;100.00;96406.00;5010753;28;20040;-75
2022/09/18 04:21:09;;;;;;;0.10;0.10;;;;;;;7.93;100.00;96409.25;5008886;28;20064;-75
2022/09/18 04:23:35;;;;;;;0.10;0.10;;;;;;;7.92;100.00;96415.63;5011421;28;20100;-75
2022/09/18 04:26:07;;;;;;;0.15;0.15;;;;;;;7.96;100.00;96417.59;5026045;28;20116;-75
2022/09/18 04:28:35;;;;;;;0.10;0.10;;;;;;;7.96;100.00;96416.78;4992401;28;20601;-75
2022/09/18 04:31:03;;;;;;;0.10;0.10;;;;;;;7.96;100.00;96422.13;5010902;28;20038;-75
2022/09/18 04:33:29;;;;;;;0.10;0.10;;;;;;;7.90;100.00;96415.88;5024828;28;20036;-75
2022/09/18 04:35:56;;;;;;;0.10;0.10;;;;;;;7.93;100.00;96404.72;5017621;28;20033;-75
2022/09/18 04:38:26;;;;;;;0.10;0.10;;;;;;;7.93;100.00;96419.91;5009196;28;20388;-75
2022/09/18 04:40:55;;;;;;;0.10;0.10;;;;;;;7.93;100.00;96420.72;5012290;28;20605;-76
2022/09/18 04:43:20;;;;;;;0.10;0.10;;;;;;;7.92;100.00;96416.44;5008518;28;20056;-75
2022/09/18 04:45:48;;;;;;;0.10;0.10;;;;;;;7.88;100.00;96417.94;5009951;28;20041;-75
2022/09/18 04:48:19;;;;;;;0.10;0.10;;;;;;;7.91;100.00;96406.00;4992620;28;20029;-75
2022/09/18 04:50:47;;;;;;;0.10;0.10;;;;;;;7.89;100.00;96395.59;5010885;28;20116;-75
2022/09/18 04:53:16;;;;;;;0.10;0.10;;;;;;;7.91;100.00;96403.34;4995271;28;20082;-75
2022/09/18 04:55:44;;;;;;;0.10;0.10;;;;;;;7.90;100.00;96393.75;5016245;28;20817;-75
2022/09/18 04:58:12;;;;;;;0.15;0.10;;;;;;;7.91;100.00;96398.03;5010671;28;20641;-75
2022/09/18 05:00:40;;;;;;;0.10;0.10;;;;;;;7.89;100.00;96398.25;5025233;28;20513;-75
2022/09/18 05:03:06;;;;;;;0.10;0.10;;;;;;;7.89;100.00;96398.25;5028120;28;20038;-76
2022/09/18 05:05:35;;;;;;;0.10;0.10;;;;;;;7.88;100.00;96391.31;5016657;28;20032;-75
2022/09/18 05:08:02;;;;;;;0.13;0.13;;;;;;;7.89;100.00;96402.78;5012640;28;20037;-75
2022/09/18 05:10:28;;;;;;;0.10;0.10;;;;;;;7.88;100.00;96401.16;5026236;28;20085;-75
2022/09/18 05:12:54;;;;;;;0.10;0.10;;;;;;;7.87;100.00;96405.69;5059767;28;20063;-75
2022/09/18 05:15:20;;;;;;;0.10;0.10;;;;;;;7.81;100.00;96410.06;5038856;28;20186;-75
2022/09/18 05:17:48;;;;;;;0.10;0.10;;;;;;;7.87;100.00;96411.00;5038144;28;20024;-75
2022/09/18 05:20:15;;;;;;;0.10;0.10;;;;;;;7.85;100.00;96407.75;5040884;28;20107;-75
2022/09/18 05:22:45;;;;;;;0.08;0.08;;;;;;;7.85;100.00;96413.06;5030060;28;20040;-75
2022/09/18 05:25:19;;;;;;;0.10;0.10;;;;;;;7.92;100.00;96407.63;5049209;28;20411;-75
2022/09/18 05:27:55;;;;;;;0.10;0.10;;;;;;;7.92;100.00;96415.63;5044936;28;20028;-75
2022/09/18 05:30:24;;;;;;;0.10;0.10;;;;;;;7.94;100.00;96414.38;5059044;28;20060;-75
2022/09/18 05:33:04;;;;;;;0.10;0.10;;;;;;;7.93;100.00;96415.38;5049915;28;20101;-75
2022/09/18 05:35:32;;;;;;;0.10;0.10;;;;;;;7.94;100.00;96409.03;5027454;28;20028;-75
2022/09/18 05:37:58;;;;;;;0.10;0.10;;;;;;;7.97;100.00;96418.41;5044828;28;20028;-75
2022/09/18 05:40:29;;;;;;;0.05;0.05;;;;;;;7.99;100.00;96406.47;5041968;28;20041;-75
2022/09/18 05:42:57;;;;;;;0.10;0.10;;;;;;;8.00;100.00;96404.59;5050052;28;20065;-75
2022/09/18 05:45:24;;;;;;;0.10;0.10;;;;;;;8.03;100.00;96404.97;5043143;28;20032;-76
2022/09/18 05:48:11;;;;;;;0.10;0.10;;;;;;;8.08;100.00;96405.06;5041454;28;20181;-75
2022/09/18 05:50:37;;;;;;;0.10;0.10;;;;;;;8.06;100.00;96391.16;5060639;28;20028;-75
2022/09/18 05:53:09;;;;;;;0.10;0.10;;;;;;;8.10;100.00;96399.53;5044426;28;20063;-75
2022/09/18 05:55:45;;;;;;;0.10;0.10;;;;;;;8.07;100.00;96395.44;5031752;28;20037;-75
2022/09/18 05:58:13;;;;;;;0.10;0.10;;;;;;;8.10;100.00;96411.00;5044616;28;20082;-75
2022/09/18 06:00:39;;;;;;;0.10;0.10;;;;;;;8.09;100.00;96403.22;5040566;28;20029;-75
2022/09/18 06:03:15;;;;;;;0.10;0.10;;;;;;;8.07;100.00;96400.78;5044236;28;20037;-75
2022/09/18 06:05:41;;;;;;;0.10;0.10;;;;;;;8.07;100.00;96407.97;5028234;28;20471;-75
2022/09/18 06:08:11;;;;;;;0.10;0.10;;;;;;;8.05;100.00;96416.19;5042012;28;20024;-75
2022/09/18 06:10:39;;;;;;;0.10;0.10;;;;;;;8.02;100.00;96407.88;5043856;28;20144;-75
2022/09/18 06:13:09;;;;;;;0.10;0.10;;;;;;;8.02;100.00;96414.00;5044801;28;20053;-75
2022/09/18 06:15:51;;;;;;;0.10;0.10;;;;;;;8.06;100.00;96414.34;5061148;28;20103;-75
2022/09/18 06:18:24;;;;;;;0.10;0.10;;;;;;;8.09;100.00;96411.19;5059021;28;20106;-76
2022/09/18 06:20:57;;;;;;;0.10;0.10;;;;;;;8.15;100.00;96418.28;5049615;28;20172;-76
2022/09/18 06:23:27;;;;;;;0.00;0.00;;;;;;;8.27;100.00;96411.09;5042601;28;20162;-76
2022/09/18 06:26:04;;;;;;;0.10;0.10;;;;;;;8.34;100.00;96418.94;5048142;28;20028;-76
2022/09/18 06:28:32;;;;;;;0.10;0.10;;;;;;;8.37;100.00;96423.84;5028703;28;20028;-76
2022/09/18 06:31:01;;;;;;;0.10;0.10;;;;;;;8.29;100.00;96416.97;5043894;28;20692;-76
2022/09/18 06:33:31;;;;;;;0.15;0.10;;;;;;;8.29;100.00;96422.31;5045183;28;20040;-76
2022/09/18 06:35:56;;;;;;;0.10;0.10;;;;;;;8.27;100.00;96426.25;5013842;28;20024;-75
2022/09/18 06:38:31;;;;;;;0.10;0.10;;;;;;;8.30;100.00;96425.78;5043657;28;20051;-75
2022/09/18 06:40:58;;;;;;;0.10;0.10;;;;;;;8.28;100.00;96433.22;5043333;28;20229;-76
2022/09/18 06:43:31;;;;;;;0.10;0.10;;;;;;;8.30;100.00;96425.78;5044843;28;20353;-76
2022/09/18 06:46:11;;;;;;;0.10;0.10;;;;;;;8.30;100.00;96420.44;5018188;28;20036;-76
2022/09/18 06:48:42;;;;;;;0.10;0.10;;;;;;;8.32;100.00;96418.34;5030033;28;20036;-76
2022/09/18 06:51:08;;;;;;;0.10;0.10;;;;;;;8.31;100.00;96420.22;5060844;28;20067;-76
2022/09/18 06:53:52;;;;;;;0.10;0.10;;;;;;;8.35;100.00;96415.28;5046047;28;20107;-76
2022/09/18 06:56:25;;;;;;;0.10;0.10;;;;;;;8.35;100.00;96426.75;4925789;28;10000403;-77
2022/09/18 06:58:52;;;;;;;0.10;0.10;;;;;;;8.32;100.00;96421.03;4695026;28;9999730;-76
2022/09/18 07:01:19;;;;;;;0.10;0.10;;;;;;;8.24;100.00;96424.06;4693365;28;10000653;-77
2022/09/18 07:03:47;;;;;;;0.10;0.10;;;;;;;8.20;100.00;96425.56;5043626;28;20050;-78
2022/09/18 07:06:20;;;;;;;0.10;0.10;;;;;;;8.19;100.00;96423.97;5058070;28;20593;-76
2022/09/18 07:08:48;;;;;;;0.10;0.10;;;;;;;8.19;100.00;96423.97;5029128;28;20445;-77
2022/09/18 07:11:52;;;;;;;0.05;0.05;;;;;;;8.28;100.00;96423.34;4956584;28;20035;-76
2022/09/18 07:14:22;;;;;;;0.10;0.10;;;;;;;8.38;100.00;96412.13;4944192;28;20114;-77
2022/09/18 07:16:52;;;;;;;0.20;0.20;;;;;;;8.40;100.00;96411.88;4994624;28;20090;-78
2022/09/18 07:19:18;;;;;;;0.10;0.10;;;;;;;8.42;100.00;96401.81;5024710;28;20035;-77
2022/09/18 07:21:44;;;;;;;0.10;0.10;;;;;;;8.54;100.00;96402.56;5042793;28;20487;-77
2022/09/18 07:24:10;;;;;;;0.10;0.10;;;;;;;8.52;100.00;96415.34;5055625;28;20047;-77
2022/09/18 07:26:37;;;;;;;0.20;0.10;;;;;;;8.44;100.00;96419.19;5043416;28;20314;-78
2022/09/18 07:29:05;;;;;;;0.10;0.10;;;;;;;8.51;100.00;96417.19;5044486;28;20029;-77
2022/09/18 07:31:34;;;;;;;0.10;0.10;;;;;;;8.50;100.00;96420.09;5040455;28;20263;-77
2022/09/18 07:34:03;;;;;;;0.10;0.10;;;;;;;8.59;100.00;96424.81;5014876;28;20407;-78
2022/09/18 07:36:28;;;;;;;0.10;0.10;;;;;;;8.60;100.00;96417.63;5045507;28;20314;-76
2022/09/18 07:38:54;;;;;;;0.10;0.10;;;;;;;8.56;100.00;96419.13;5048472;28;20135;-77
2022/09/18 07:41:23;;;;;;;0.10;0.10;;;;;;;8.59;100.00;96408.81;5043360;28;20028;-78
2022/09/18 07:43:49;;;;;;;0.10;0.10;;;;;;;8.58;100.00;96403.72;5027200;28;20026;-77
2022/09/18 07:46:15;;;;;;;0.10;0.10;;;;;;;8.62;100.00;96419.00;5040940;28;20111;-77
2022/09/18 07:48:44;;;;;;;0.10;0.10;;;;;;;8.63;100.00;96406.47;5042312;28;20032;-77
2022/09/18 07:51:16;;;;;;;0.00;0.00;;;;;;;8.65;100.00;96410.56;5040934;28;20029;-77
2022/09/18 07:53:47;;;;;;;0.10;0.10;;;;;;;8.71;100.00;96406.09;5025400;28;20371;-77
2022/09/18 07:56:13;;;;;;;0.10;0.10;;;;;;;8.66;100.00;96419.34;5040714;28;20150;-77
2022/09/18 07:58:39;;;;;;;0.10;0.10;;;;;;;8.74;100.00;96415.50;5039541;28;20020;-77
2022/09/18 08:01:10;;;;;;;0.10;0.10;;;;;;;8.97;100.00;96404.75;5024528;28;20421;-77
2022/09/18 08:03:56;;;;;;;0.10;0.10;;;;;;;9.03;100.00;96414.47;5058956;28;20039;-77
2022/09/18 08:06:45;;;;;;;0.10;0.10;;;;;;;8.96;100.00;96411.13;5057709;28;20086;-77
2022/09/18 08:09:23;;;;;;;0.10;0.10;;;;;;;8.83;100.00;96417.56;5021336;28;20075;-77
2022/09/18 08:12:18;;;;;;;0.10;0.10;;;;;;;8.81;100.00;96421.53;5032461;28;20385;-77
2022/09/18 08:14:59;;;;;;;;;;;;;;;8.75;100.00;96417.13;5038795;28;20029;-77
2022/09/18 08:17:43;;;;;;;0.00;0.00;;;;;;;8.69;100.00;96424.22;5045034;28;19915;-77
2022/09/18 08:20:26;;;;;;;0.10;0.10;;;;;;;8.65;100.00;96423.09;5040333;28;20025;-77
2022/09/18 08:22:55;;;;;;;0.10;0.10;;;;;;;8.60;100.00;96423.78;5058621;28;20044;-78
2022/09/18 08:25:26;;;;;;;0.10;0.10;;;;;;;8.70;100.00;96417.03;5026324;28;20076;-77
2022/09/18 08:27:52;;;;;;;0.10;0.10;;;;;;;8.96;100.00;96421.81;5045058;28;20119;-77
2022/09/18 08:30:28;;;;;;;0.10;0.10;;;;;;;9.08;100.00;96422.53;5042171;28;20120;-78
2022/09/18 08:33:08;;;;;;;0.10;0.10;;;;;;;9.34;100.00;96425.66;5046473;28;20183;-77
2022/09/18 08:35:35;;;;;;;0.10;0.10;;;;;;;9.33;100.00;96410.69;5042614;28;20105;-78
2022/09/18 08:38:13;;;;;;;0.15;0.15;;;;;;;9.53;100.00;96402.22;5042550;28;20206;-77
2022/09/18 08:41:22;;;;;;;0.10;0.10;;;;;;;9.63;100.00;96399.69;4992196;28;20432;-78
2022/09/18 08:44:05;;;;;;;0.10;0.10;;;;;;;9.73;100.00;96403.34;5027612;28;20059;-77
2022/09/18 08:46:42;;;;;;;0.10;0.10;;;;;;;9.52;100.00;96400.59;5025813;28;20064;-79
2022/09/18 08:49:30;;;;;;;0.10;0.10;;;;;;;9.39;100.00;96407.06;5042158;28;20374;-77
2022/09/18 08:52:13;;;;;;;0.10;0.10;;;;;;;9.32;100.00;96409.06;5038790;28;20047;-77
2022/09/18 08:54:58;;;;;;;0.10;0.10;;;;;;;9.23;100.00;96410.53;5042057;28;20214;-77
2022/09/18 08:57:55;;;;;;;0.10;0.10;;;;;;;9.15;100.00;96391.19;5020678;28;20044;-78
2022/09/18 09:00:35;;;;;;;0.10;0.10;;;;;;;9.33;100.00;96403.47;5027875;28;20047;-78
2022/09/18 09:03:47;;;;;;;0.10;0.10;;;;;;;9.56;100.00;96396.38;5022787;28;20100;-78
2022/09/18 09:06:26;;;;;;;0.10;0.10;;;;;;;9.50;100.00;96387.50;5028031;28;20063;-78
2022/09/18 09:09:18;;;;;;;0.10;0.10;;;;;;;9.74;100.00;96391.59;5031680;28;20275;-78
2022/09/18 09:11:54;;;;;;;0.10;0.10;;;;;;;9.81;100.00;96396.78;5013219;28;20341;-77
2022/09/18 09:14:35;;;;;;;0.10;0.10;;;;;;;9.77;100.00;96387.63;5025431;28;20112;-79
2022/09/18 09:17:28;;;;;;;0.10;0.10;;;;;;;9.69;100.00;96390.72;5060185;28;20458;-78
2022/09/18 09:20:05;;;;;;;0.10;0.10;;;;;;;9.53;100.00;96397.69;5039441;28;20028;-77
2022/09/18 09:22:55;;;;;;;0.10;0.10;;;;;;;9.49;100.00;96404.53;5057994;28;20032;-78
2022/09/18 09:25:30;;;;;;;0.10;0.10;;;;;;;9.55;100.00;96405.44;5042414;28;20372;-76
2022/09/18 09:28:25;;;;;;;0.10;0.10;;;;;;;9.43;100.00;96397.53;5021175;28;20121;-76
2022/09/18 09:31:02;;;;;;;0.10;0.10;;;;;;;9.47;100.00;96398.63;5023207;28;20029;-77
2022/09/18 09:34:43;;;;;;;0.10;0.10;;;;;;;9.53;100.00;96400.34;5048150;28;20473;-77
2022/09/18 09:37:37;;;;;;;0.20;0.10;;;;;;;9.45;100.00;96400.75;5027333;28;22037;-76
2022/09/18 09:40:34;;;;;;;0.10;0.10;;;;;;;9.65;100.00;96408.25;5011703;28;20519;-77
2022/09/18 09:43:23;;;;;;;0.10;0.10;;;;;;;9.70;100.00;96403.81;5043326;28;20040;-77
2022/09/18 09:45:53;;;;;;;0.10;0.10;;;;;;;9.87;100.00;96398.47;5037901;28;20032;-77
2022/09/18 09:48:43;;;;;;;0.10;0.10;;;;;;;9.98;100.00;96407.44;5055595;28;20033;-76
2022/09/18 09:51:16;;;;;;;0.10;0.10;;;;;;;9.94;100.00;96387.59;5021291;28;20028;-77
2022/09/18 09:53:43;;;;;;;0.10;0.10;;;;;;;10.03;100.00;96388.78;5012818;28;20382;-77
2022/09/18 09:56:27;;;;;;;0.10;0.10;;;;;;;10.01;100.00;96394.38;5033999;28;20032;-77
2022/09/18 09:59:29;;;;;;;0.10;0.10;;;;;;;10.07;100.00;96397.94;5056862;28;20144;-77
2022/09/18 10:02:31;;;;;;;0.10;0.10;;;;;;;10.25;100.00;96381.63;5032460;28;20553;-77
2022/09/18 10:05:10;;;;;;;0.10;0.10;;;;;;;10.47;100.00;96380.84;5043121;28;20123;-77
2022/09/18 10:08:01;;;;;;;0.00;0.00;;;;;;;10.42;100.00;96388.78;5039927;28;20375;-77
2022/09/18 10:10:40;;;;;;;0.10;0.10;;;;;;;10.47;100.00;96383.50;5037712;28;20099;-77
2022/09/18 10:13:14;;;;;;;0.10;0.10;;;;;;;10.30;100.00;96384.38;5014866;28;20039;-77
2022/09/18 10:15:45;;;;;;;0.10;0.10;;;;;;;10.17;100.00;96384.72;5057011;28;20033;-78
2022/09/18 10:18:24;;;;;;;0.10;0.10;;;;;;;9.97;100.00;96382.59;5028646;28;20028;-77
2022/09/18 10:20:54;;;;;;;0.10;0.10;;;;;;;10.22;100.00;96375.97;5023504;28;20020;-77
2022/09/18 10:23:27;;;;;;;0.10;0.10;;;;;;;10.42;100.00;96384.25;5022735;28;20215;-78
2022/09/18 10:25:58;;;;;;;0.10;0.10;;;;;;;10.60;100.00;96375.94;5043844;28;20032;-78
2022/09/18 10:28:28;;;;;;;0.10;0.10;;;;;;;10.41;100.00;96379.97;5039485;28;20032;-77
2022/09/18 10:31:00;;;;;;;0.10;0.10;;;;;;;10.19;100.00;96389.81;5028231;28;20024;-76
2022/09/18 10:33:40;;;;;;;0.13;0.10;;;;;;;10.04;100.00;96393.09;4690926;28;9999702;-77
2022/09/18 10:36:18;;;;;;;0.10;0.10;;;;;;;10.00;100.00;96391.97;5021118;28;20119;-78
2022/09/18 10:38:45;;;;;;;0.00;0.00;;;;;;;10.01;100.00;96394.38;5040248;28;20331;-77
2022/09/18 10:41:34;;;;;;;0.10;0.10;;;;;;;10.04;100.00;96387.75;5019287;28;20539;-77
2022/09/18 10:44:23;;;;;;;0.00;0.00;;;;;;;9.92;100.00;96389.72;5017922;28;20111;-77
2022/09/18 10:47:02;;;;;;;0.10;0.10;;;;;;;9.92;100.00;96387.03;5025221;28;20032;-75
2022/09/18 10:49:30;;;;;;;0.10;0.10;;;;;;;9.86;100.00;96383.47;5035395;28;20040;-76
2022/09/18 10:52:20;;;;;;;0.10;0.10;;;;;;;9.72;100.00;96384.88;5030253;28;20059;-76
2022/09/18 10:55:23;;;;;;;0.00;0.00;;;;;;;9.55;100.00;96387.56;5031483;28;20466;-76
2022/09/18 10:58:13;;;;;;;0.10;0.10;;;;;;;9.66;100.00;96386.69;5027199;28;20036;-76
2022/09/18 11:01:00;;;;;;;0.10;0.10;;;;;;;9.92;100.00;96387.03;5018204;28;20029;-76
2022/09/18 11:03:45;;;;;;;0.10;0.10;;;;;;;9.91;100.00;96393.44;5017360;28;20048;-76
2022/09/18 11:06:29;;;;;;;0.00;0.00;;;;;;;9.66;100.00;96380.53;5020465;28;20107;-76
2022/09/18 11:09:01;;;;;;;0.10;0.10;;;;;;;9.62;100.00;96388.19;5034302;28;20109;-76
2022/09/18 11:11:33;;;;;;;0.10;0.10;;;;;;;9.53;100.00;96378.16;5033700;28;20070;-76
2022/09/18 11:14:22;;;;;;;0.10;0.10;;;;;;;9.61;100.00;96369.75;5042600;28;20052;-76
2022/09/18 11:17:01;;;;;;;0.10;0.10;;;;;;;11.04;100.00;96359.78;5038667;28;20706;-77
2022/09/18 11:19:37;;;;;;;0.10;0.10;;;;;;;11.53;100.00;96335.56;5018034;28;20479;-77
2022/09/18 11:22:33;;;;;;;0.05;0.05;;;;;;;11.37;100.00;96336.50;5029041;28;20128;-77
2022/09/18 11:25:15;;;;;;;0.10;0.10;;;;;;;10.91;100.00;96352.16;5033278;28;20410;-78
2022/09/18 11:27:50;;;;;;;0.10;0.10;;;;;;;10.42;100.00;96360.19;5034210;28;20054;-77
2022/09/18 11:30:27;;;;;;;0.10;0.10;;;;;;;10.22;100.00;96352.72;5047692;28;20402;-77
2022/09/18 11:33:03;;;;;;;0.10;0.10;;;;;;;10.14;100.00;96360.34;5049525;28;20404;-77
2022/09/18 11:35:31;;;;;;;0.00;0.00;;;;;;;9.97;100.00;96358.53;5033025;28;20451;-77
2022/09/18 11:38:06;;;;;;;0.10;0.10;;;;;;;9.94;100.00;96358.19;5016850;28;20128;-77
2022/09/18 11:40:50;;;;;;;0.10;0.10;;;;;;;9.93;100.00;96352.03;4981553;28;20153;-77
2022/09/18 11:43:29;;;;;;;0.10;0.10;;;;;;;9.88;100.00;96368.00;5019965;28;20037;-77
2022/09/18 11:46:04;;;;;;;0.08;0.08;;;;;;;9.92;100.00;96358.44;5010623;28;20039;-77
2022/09/18 11:48:51;;;;;;;0.10;0.10;;;;;;;10.00;100.00;96363.38;5028927;28;20029;-77
2022/09/18 11:51:32;;;;;;;0.10;0.10;;;;;;;10.01;100.00;96364.97;5034833;28;20043;-77
2022/09/18 11:54:13;;;;;;;0.10;0.10;;;;;;;10.02;100.00;96360.44;5031716;28;20047;-77
2022/09/18 11:56:43;;;;;;;0.10;0.10;;;;;;;10.09;100.00;96345.03;5026134;28;20028;-77
2022/09/18 11:59:22;;;;;;;0.10;0.10;;;;;;;10.08;100.00;96350.63;5031611;28;20033;-77
2022/09/18 12:01:56;;;;;;;0.10;0.10;;;;;;;10.13;100.00;96353.38;5031843;28;20637;-77
2022/09/18 12:04:43;;;;;;;0.10;0.10;;;;;;;10.22;100.00;96365.25;5030132;28;20036;-77
2022/09/18 12:07:24;;;;;;;0.10;0.10;;;;;;;10.11;100.00;96356.28;5018139;28;20025;-77